Time;durP1;ratioP1;P1;durP2;ratioP2;P2;SDS_P1;SDS_P2;PMS_P1;PMS_P2;Temp;Humidity;BMP_temperature;BMP_pressure;BME280_temperature;BME280_humidity;BME280_pressure;Samples;Min_cycle;Max_cycle;Signal;HPM_P1;HPM_P2
2022/09/12 00:00:37;;;;;;;8.00;7.30;;;;;;;12.40;100.00;97281.78;5005939;28;20473;-67
2022/09/12 00:03:05;;;;;;;8.07;7.47;;;;;;;12.26;100.00;97278.19;4995646;28;20592;-68
2022/09/12 00:05:34;;;;;;;7.83;7.20;;;;;;;12.19;100.00;97279.16;5008054;28;20203;-67
2022/09/12 00:08:03;;;;;;;7.33;6.73;;;;;;;12.16;100.00;97275.06;5014794;28;20247;-68
2022/09/12 00:10:31;;;;;;;7.87;7.27;;;;;;;12.07;100.00;97281.50;5009586;28;20230;-69
2022/09/12 00:13:01;;;;;;;8.43;7.83;;;;;;;11.96;100.00;97277.50;4968685;28;20776;-69
2022/09/12 00:15:29;;;;;;;8.43;7.73;;;;;;;11.91;100.00;97263.94;5009223;28;20211;-69
2022/09/12 00:17:57;;;;;;;8.33;7.73;;;;;;;11.62;100.00;97232.06;4993873;28;20223;-70
2022/09/12 00:20:26;;;;;;;8.53;7.83;;;;;;;11.80;100.00;97262.66;5011334;28;20219;-69
2022/09/12 00:22:54;;;;;;;9.27;8.27;;;;;;;11.77;100.00;97261.19;4987857;28;20253;-72
2022/09/12 00:25:22;;;;;;;9.10;8.30;;;;;;;11.68;100.00;97257.81;5010095;28;20208;-67
2022/09/12 00:27:50;;;;;;;9.27;8.43;;;;;;;11.68;100.00;97251.72;4965020;28;20212;-67
2022/09/12 00:30:20;;;;;;;9.13;8.50;;;;;;;11.62;100.00;97250.63;5008941;28;20242;-68
2022/09/12 00:32:50;;;;;;;9.63;8.93;;;;;;;11.53;100.00;97257.06;4995187;28;20412;-74
2022/09/12 00:35:18;;;;;;;8.90;8.20;;;;;;;11.50;100.00;97244.19;5007598;28;20204;-68
2022/09/12 00:37:46;;;;;;;9.53;8.83;;;;;;;11.44;100.00;97251.06;5013259;28;20201;-69
2022/09/12 00:40:14;;;;;;;8.40;7.80;;;;;;;11.40;100.00;97250.63;5012307;28;20208;-69
2022/09/12 00:42:43;;;;;;;9.10;8.43;;;;;;;11.37;100.00;97247.50;4961672;28;21103;-71
2022/09/12 00:45:23;;;;;;;9.57;8.63;;;;;;;11.31;100.00;97248.25;5011588;28;20213;-71
2022/09/12 00:47:51;;;;;;;7.73;7.23;;;;;;;11.25;100.00;97242.72;4991935;28;20214;-71
2022/09/12 00:50:19;;;;;;;7.87;7.27;;;;;;;11.19;100.00;97238.16;5009893;28;20204;-71
2022/09/12 00:52:50;;;;;;;7.77;7.27;;;;;;;11.19;100.00;97245.28;5010302;28;20232;-72
2022/09/12 00:55:21;;;;;;;8.43;7.83;;;;;;;11.13;100.00;97247.66;5005141;28;20211;-71
2022/09/12 00:57:51;;;;;;;8.40;7.80;;;;;;;11.13;100.00;97244.16;5012862;28;20582;-71
2022/09/12 01:00:23;;;;;;;8.97;8.13;;;;;;;11.09;100.00;97245.56;4959934;28;20699;-69
2022/09/12 01:02:55;;;;;;;7.93;7.43;;;;;;;11.05;100.00;97239.81;4957515;28;20243;-70
2022/09/12 01:05:24;;;;;;;8.60;8.00;;;;;;;10.98;100.00;97236.25;5008621;28;20212;-70
2022/09/12 01:07:52;;;;;;;8.20;7.60;;;;;;;10.80;100.00;97223.41;5008870;28;20607;-70
2022/09/12 01:10:21;;;;;;;8.33;7.73;;;;;;;10.95;100.00;97239.25;5013246;28;20679;-69
2022/09/12 01:12:49;;;;;;;9.13;8.20;;;;;;;10.89;100.00;97232.06;5008082;28;20434;-70
2022/09/12 01:15:17;;;;;;;8.53;7.63;;;;;;;10.81;100.00;97236.47;5013150;28;20483;-71
2022/09/12 01:17:59;;;;;;;8.63;7.93;;;;;;;10.74;100.00;97232.06;4960208;28;20216;-68
2022/09/12 01:21:05;;;;;;;7.73;7.23;;;;;;;10.78;100.00;97236.00;5011063;28;20205;-69
2022/09/12 01:23:57;;;;;;;8.63;7.87;;;;;;;10.79;100.00;97237.63;5012259;28;20413;-68
2022/09/12 01:27:20;;;;;;;9.10;8.30;;;;;;;10.78;100.00;97236.81;5012345;28;20588;-70
2022/09/12 01:30:04;;;;;;;10.07;9.17;;;;;;;10.74;100.00;97232.06;4931196;28;20403;-69
2022/09/12 01:32:43;;;;;;;9.77;8.87;;;;;;;10.71;100.00;97225.31;4901044;28;20233;-70
2022/09/12 01:35:19;;;;;;;10.80;9.77;;;;;;;10.73;100.00;97230.41;4948776;28;20746;-72
2022/09/12 01:37:54;;;;;;;10.43;9.43;;;;;;;10.80;100.00;97223.41;4942802;28;20252;-70
2022/09/12 01:40:25;;;;;;;9.93;9.23;;;;;;;10.76;100.00;97224.75;4948681;28;20218;-69
2022/09/12 01:42:57;;;;;;;8.83;8.23;;;;;;;10.71;100.00;97223.47;4945227;28;20215;-71
2022/09/12 01:45:29;;;;;;;9.77;9.03;;;;;;;10.73;100.00;97219.81;4949758;28;20214;-72
2022/09/12 01:48:02;;;;;;;8.93;8.33;;;;;;;10.66;100.00;97225.88;4898391;28;20440;-70
2022/09/12 01:50:32;;;;;;;10.63;9.93;;;;;;;10.59;100.00;97222.31;4948453;28;20213;-69
2022/09/12 01:53:03;;;;;;;9.77;9.07;;;;;;;10.62;100.00;97229.06;4946266;28;20367;-68
2022/09/12 01:55:34;;;;;;;12.23;10.30;;;;;;;10.55;100.00;97224.50;4949270;28;20210;-72
2022/09/12 01:58:06;;;;;;;10.40;9.50;;;;;;;10.59;100.00;97218.81;4944913;28;20215;-71
2022/09/12 02:00:37;;;;;;;10.43;9.73;;;;;;;10.62;100.00;97215.84;4949019;28;20218;-70
2022/09/12 02:03:11;;;;;;;10.03;9.20;;;;;;;10.64;100.00;97211.16;4903551;28;20252;-70
2022/09/12 02:05:42;;;;;;;9.47;8.87;;;;;;;10.65;100.00;97215.47;5007703;28;20207;-69
2022/09/12 02:08:12;;;;;;;9.57;8.93;;;;;;;10.57;100.00;97201.28;5010954;28;20204;-67
2022/09/12 02:10:43;;;;;;;10.00;8.50;;;;;;;10.60;100.00;97207.22;5007372;28;20212;-69
2022/09/12 02:13:15;;;;;;;8.70;8.10;;;;;;;10.61;100.00;97204.41;5009570;28;20974;-68
2022/09/12 02:15:46;;;;;;;9.07;8.37;;;;;;;10.66;100.00;97201.22;5004697;28;20212;-69
2022/09/12 02:18:17;;;;;;;9.30;8.60;;;;;;;10.73;100.00;97203.91;5012199;28;20204;-69
2022/09/12 02:20:47;;;;;;;9.50;8.90;;;;;;;10.64;100.00;97197.91;4960263;28;20218;-67
2022/09/12 02:23:20;;;;;;;9.17;8.57;;;;;;;10.66;100.00;97209.97;5009331;28;20261;-72
2022/09/12 02:25:51;;;;;;;9.57;8.77;;;;;;;10.64;100.00;97205.88;5007308;28;20472;-71
2022/09/12 02:28:23;;;;;;;8.43;7.83;;;;;;;10.62;100.00;97186.69;5012862;28;20208;-69
2022/09/12 02:30:56;;;;;;;8.70;8.03;;;;;;;10.66;100.00;97201.22;5008221;28;20236;-70
2022/09/12 02:33:30;;;;;;;9.23;8.47;;;;;;;10.62;100.00;97203.38;5009697;28;20238;-70
2022/09/12 02:36:05;;;;;;;8.57;7.97;;;;;;;10.62;100.00;97197.28;4979849;28;20219;-70
2022/09/12 02:39:04;;;;;;;8.90;8.30;;;;;;;10.74;100.00;97197.63;4993997;28;20812;-69
2022/09/12 02:41:32;;;;;;;9.07;8.47;;;;;;;10.81;100.00;97203.84;5007578;28;22001;-72
2022/09/12 02:44:02;;;;;;;8.90;8.27;;;;;;;10.85;100.00;97202.47;5007499;28;20418;-69
2022/09/12 02:46:34;;;;;;;8.80;8.20;;;;;;;10.95;100.00;97195.03;5009811;28;20366;-68
2022/09/12 02:49:04;;;;;;;9.00;8.40;;;;;;;10.97;100.00;97193.03;4955519;28;21355;-69
2022/09/12 02:51:32;;;;;;;9.83;9.10;;;;;;;10.99;100.00;97200.81;5003819;28;20214;-69
2022/09/12 02:54:01;;;;;;;10.27;9.47;;;;;;;11.03;100.00;97190.63;5010532;28;20228;-67
2022/09/12 02:56:31;;;;;;;9.40;8.70;;;;;;;11.06;100.00;97196.38;5005585;28;20706;-70
2022/09/12 02:59:01;;;;;;;11.70;9.67;;;;;;;11.04;100.00;97197.56;5007594;28;20243;-70
2022/09/12 03:01:41;;;;;;;10.03;9.23;;;;;;;11.08;100.00;97194.38;5005432;28;20497;-69
2022/09/12 03:04:49;;;;;;;10.90;10.00;;;;;;;10.92;100.00;97163.59;5008687;28;20204;-69
2022/09/12 03:07:29;;;;;;;10.73;10.00;;;;;;;11.19;100.00;97187.75;4985528;28;20439;-70
2022/09/12 03:10:04;;;;;;;12.23;11.07;;;;;;;11.11;100.00;97187.84;4940610;28;20219;-68
2022/09/12 03:12:41;;;;;;;11.03;10.20;;;;;;;11.10;100.00;97187.03;4977152;28;21963;-70
2022/09/12 03:15:22;;;;;;;10.17;9.47;;;;;;;11.13;100.00;97193.78;4985214;28;20253;-71
2022/09/12 03:18:05;;;;;;;11.30;10.37;;;;;;;11.09;100.00;97187.22;5010253;28;20223;-69
2022/09/12 03:20:45;;;;;;;12.97;9.77;;;;;;;11.05;100.00;97194.75;5010916;28;20203;-70
2022/09/12 03:23:20;;;;;;;15.03;10.03;;;;;;;11.03;100.00;97187.97;4965183;28;20227;-73
2022/09/12 03:25:51;;;;;;;10.40;8.90;;;;;;;11.06;100.00;97192.91;5004694;28;20763;-72
2022/09/12 03:28:20;;;;;;;8.10;7.30;;;;;;;11.07;100.00;97195.38;5004200;28;20739;-72
2022/09/12 03:30:50;;;;;;;7.80;7.30;;;;;;;11.04;100.00;97193.09;4987009;28;20242;-70
2022/09/12 03:33:19;;;;;;;8.10;7.60;;;;;;;11.06;100.00;97199.03;5008125;28;20216;-67
2022/09/12 03:35:49;;;;;;;8.77;8.07;;;;;;;11.01;100.00;97201.44;5008916;28;20366;-69
2022/09/12 03:38:18;;;;;;;12.70;8.37;;;;;;;11.10;100.00;97197.66;5005886;28;20199;-68
2022/09/12 03:40:46;;;;;;;7.80;7.30;;;;;;;11.14;100.00;97192.78;4960756;28;20208;-71
2022/09/12 03:43:20;;;;;;;7.87;7.37;;;;;;;11.10;100.00;97196.81;5006029;28;20216;-70
2022/09/12 03:45:50;;;;;;;7.77;7.27;;;;;;;11.11;100.00;97198.47;4986858;28;20208;-69
2022/09/12 03:48:19;;;;;;;7.00;6.60;;;;;;;11.11;100.00;97194.00;5008907;28;20222;-73
2022/09/12 03:50:48;;;;;;;6.87;6.47;;;;;;;11.16;100.00;97198.72;5010810;28;20204;-69
2022/09/12 03:53:16;;;;;;;7.00;6.60;;;;;;;11.21;100.00;97193.69;5008842;28;20329;-70
2022/09/12 03:55:45;;;;;;;8.53;7.93;;;;;;;11.26;100.00;97196.59;4960774;28;20347;-69
2022/09/12 03:58:13;;;;;;;7.83;7.33;;;;;;;11.21;100.00;97185.75;5007175;28;20204;-70
2022/09/12 04:00:41;;;;;;;8.13;7.63;;;;;;;11.26;100.00;97196.59;4979605;28;20546;-69
2022/09/12 04:03:10;;;;;;;7.83;7.33;;;;;;;11.21;100.00;97191.03;4981373;28;20727;-69
2022/09/12 04:05:38;;;;;;;9.97;9.17;;;;;;;11.26;100.00;97196.59;4999460;28;20355;-68
2022/09/12 04:08:07;;;;;;;8.80;8.20;;;;;;;11.25;100.00;97196.78;5009066;28;20204;-69
2022/09/12 04:10:36;;;;;;;8.50;7.90;;;;;;;11.26;100.00;97196.59;4960268;28;20399;-68
2022/09/12 04:13:04;;;;;;;8.43;7.87;;;;;;;11.25;100.00;97200.28;4973060;28;20515;-67
2022/09/12 04:15:32;;;;;;;8.23;7.67;;;;;;;11.13;100.00;97196.44;5009922;28;20481;-68
2022/09/12 04:18:00;;;;;;;8.27;7.77;;;;;;;11.16;100.00;97196.06;4985087;28;20205;-71
2022/09/12 04:20:33;;;;;;;9.17;8.47;;;;;;;11.21;100.00;97193.69;5007808;28;20307;-69
2022/09/12 04:23:01;;;;;;;8.47;7.90;;;;;;;11.08;100.00;97197.03;5008469;28;20741;-69
2022/09/12 04:25:30;;;;;;;9.07;8.47;;;;;;;10.93;100.00;97175.84;4951521;28;22269;-66
2022/09/12 04:27:58;;;;;;;10.17;9.33;;;;;;;11.05;100.00;97194.75;5004650;28;20211;-68
2022/09/12 04:30:26;;;;;;;9.33;8.73;;;;;;;11.06;100.00;97190.25;5003710;28;20535;-68
2022/09/12 04:32:55;;;;;;;9.50;8.70;;;;;;;11.02;100.00;97196.94;4986175;28;20471;-70
2022/09/12 04:35:23;;;;;;;9.00;8.20;;;;;;;10.94;100.00;97188.09;5000009;28;20624;-68
2022/09/12 04:37:51;;;;;;;8.93;8.23;;;;;;;10.81;100.00;97193.25;5005858;28;20773;-70
2022/09/12 04:40:20;;;;;;;9.53;8.93;;;;;;;10.55;100.00;97170.69;4988380;28;20538;-69
2022/09/12 04:42:49;;;;;;;9.90;9.10;;;;;;;10.64;100.00;97190.78;4949457;28;20904;-70
2022/09/12 04:45:18;;;;;;;9.10;8.50;;;;;;;10.71;100.00;97189.03;4974529;28;20510;-69
2022/09/12 04:47:46;;;;;;;9.47;8.40;;;;;;;10.62;100.00;97163.66;4974593;28;20369;-66
2022/09/12 04:50:14;;;;;;;9.70;8.90;;;;;;;10.88;100.00;97185.34;4939919;28;21044;-70
2022/09/12 04:52:42;;;;;;;9.50;8.80;;;;;;;10.84;100.00;97192.88;4992276;28;20595;-70
2022/09/12 04:55:10;;;;;;;14.50;8.60;;;;;;;10.87;100.00;97197.81;4983120;28;20443;-69
2022/09/12 04:57:39;;;;;;;9.77;9.07;;;;;;;10.86;100.00;97191.66;4964341;28;20959;-69
2022/09/12 05:00:13;;;;;;;9.50;8.80;;;;;;;10.95;100.00;97195.03;5008141;28;20239;-70
2022/09/12 05:02:41;;;;;;;10.20;9.50;;;;;;;10.98;100.00;97193.81;5014663;28;20695;-70
2022/09/12 05:05:10;;;;;;;9.93;9.10;;;;;;;10.94;100.00;97195.22;4961219;28;20835;-70
2022/09/12 05:07:38;;;;;;;9.77;8.97;;;;;;;10.98;100.00;97199.97;4991941;28;20602;-71
2022/09/12 05:10:08;;;;;;;10.50;9.70;;;;;;;10.98;100.00;97193.81;4980819;28;20404;-70
2022/09/12 05:12:36;;;;;;;9.23;8.57;;;;;;;11.01;100.00;97201.44;4962606;28;20247;-71
2022/09/12 05:15:05;;;;;;;9.70;9.00;;;;;;;11.09;100.00;97200.47;5009217;28;20250;-69
2022/09/12 05:17:38;;;;;;;9.23;8.53;;;;;;;11.13;100.00;97204.41;4944140;28;20787;-71
2022/09/12 05:20:08;;;;;;;9.60;8.90;;;;;;;11.18;100.00;97209.16;5013666;28;20220;-71
2022/09/12 05:22:36;;;;;;;9.03;8.43;;;;;;;11.15;100.00;97205.03;4986866;28;20781;-72
2022/09/12 05:25:05;;;;;;;8.67;8.07;;;;;;;11.15;100.00;97205.88;5003120;28;20714;-66
2022/09/12 05:27:33;;;;;;;9.23;8.53;;;;;;;11.11;100.00;97207.25;4982839;28;20419;-66
2022/09/12 05:30:01;;;;;;;8.57;7.87;;;;;;;11.17;100.00;97208.31;4991967;28;20867;-66
2022/09/12 05:32:32;;;;;;;9.23;8.53;;;;;;;11.22;100.00;97211.25;4956978;28;20228;-69
2022/09/12 05:35:01;;;;;;;9.57;8.87;;;;;;;11.24;100.00;97214.53;5010245;28;20228;-69
2022/09/12 05:37:29;;;;;;;12.57;8.63;;;;;;;11.07;100.00;97191.88;5010019;28;20200;-65
2022/09/12 05:39:58;;;;;;;10.37;9.57;;;;;;;11.08;100.00;97193.53;4986515;28;20215;-66
2022/09/12 05:42:26;;;;;;;9.63;8.87;;;;;;;11.31;100.00;97230.50;5007834;28;20695;-69
2022/09/12 05:44:54;;;;;;;9.20;8.50;;;;;;;11.37;100.00;97234.25;5013575;28;20211;-68
2022/09/12 05:47:25;;;;;;;10.10;9.30;;;;;;;11.50;100.00;97239.69;4942857;28;20811;-68
2022/09/12 05:49:53;;;;;;;9.23;8.50;;;;;;;11.47;100.00;97232.09;5010095;28;20205;-66
2022/09/12 05:52:23;;;;;;;9.47;8.77;;;;;;;11.48;100.00;97235.59;5008964;28;20375;-67
2022/09/12 05:54:51;;;;;;;12.93;8.87;;;;;;;11.40;100.00;97234.72;4987958;28;20220;-68
2022/09/12 05:57:19;;;;;;;9.60;8.83;;;;;;;11.31;100.00;97206.63;5008258;28;20208;-67
2022/09/12 05:59:48;;;;;;;10.00;9.03;;;;;;;11.52;100.00;97232.34;5012364;28;20201;-70
2022/09/12 06:02:17;;;;;;;9.33;8.27;;;;;;;11.64;100.00;97226.56;4988813;28;20228;-69
2022/09/12 06:04:45;;;;;;;28.13;9.97;;;;;;;11.68;100.00;97235.78;4960561;28;20589;-66
2022/09/12 06:07:14;;;;;;;9.10;8.27;;;;;;;11.59;100.00;97232.44;5009081;28;20227;-68
2022/09/12 06:09:43;;;;;;;9.10;8.40;;;;;;;11.69;100.00;97235.59;4986344;28;20306;-69
2022/09/12 06:12:12;;;;;;;10.37;9.57;;;;;;;11.78;100.00;97241.59;5009835;28;20224;-70
2022/09/12 06:14:40;;;;;;;19.37;9.53;;;;;;;11.84;100.00;97235.50;5010735;28;20221;-68
2022/09/12 06:17:08;;;;;;;10.70;9.90;;;;;;;11.68;100.00;97203.94;4988686;28;20220;-69
2022/09/12 06:19:36;;;;;;;13.83;8.40;;;;;;;11.92;100.00;97237.22;4956438;28;20331;-67
2022/09/12 06:22:04;;;;;;;11.60;9.97;;;;;;;11.90;100.00;97231.28;5010669;28;20580;-66
2022/09/12 06:24:33;;;;;;;21.87;9.90;;;;;;;11.91;100.00;97237.41;4983831;28;20506;-69
2022/09/12 06:27:02;;;;;;;13.33;10.00;;;;;;;12.00;100.00;97234.47;5008401;28;20206;-67
2022/09/12 06:29:31;;;;;;;9.30;8.47;;;;;;;11.97;100.00;97226.03;5005079;28;21301;-70
2022/09/12 06:32:00;;;;;;;16.57;8.73;;;;;;;12.13;100.00;97236.41;5004155;28;20290;-68
2022/09/12 06:34:29;;;;;;;8.83;8.23;;;;;;;11.98;100.00;97215.22;4902643;28;20215;-67
2022/09/12 06:36:57;;;;;;;9.23;8.33;;;;;;;12.16;100.00;97238.69;5002378;28;20310;-68
2022/09/12 06:39:25;;;;;;;9.30;8.27;;;;;;;12.12;100.00;97239.25;5012496;28;20572;-65
2022/09/12 06:41:54;;;;;;;9.07;8.27;;;;;;;12.24;100.00;97244.84;4985051;28;20240;-69
2022/09/12 06:44:23;;;;;;;8.30;7.60;;;;;;;12.29;100.00;97239.78;5007687;28;20212;-67
2022/09/12 06:46:52;;;;;;;8.10;7.47;;;;;;;12.38;100.00;97240.47;5010513;28;20204;-68
2022/09/12 06:49:20;;;;;;;8.60;7.90;;;;;;;12.38;100.00;97243.13;4950744;28;20872;-69
2022/09/12 06:51:49;;;;;;;8.47;7.77;;;;;;;12.47;100.00;97239.28;5007349;28;20865;-69
2022/09/12 06:54:18;;;;;;;8.83;7.90;;;;;;;12.54;100.00;97242.84;5005654;28;20208;-68
2022/09/12 06:56:46;;;;;;;10.43;8.03;;;;;;;12.14;100.00;97246.00;4992729;28;20230;-68
2022/09/12 06:59:15;;;;;;;9.03;8.13;;;;;;;12.00;100.00;97238.94;5008663;28;20326;-70
2022/09/12 07:01:44;;;;;;;8.53;7.73;;;;;;;12.11;100.00;97238.44;5009454;28;20573;-69
2022/09/12 07:04:12;;;;;;;13.30;8.23;;;;;;;12.19;100.00;97240.13;4949178;28;20584;-67
2022/09/12 07:06:43;;;;;;;9.43;8.73;;;;;;;12.15;100.00;97239.69;5010100;28;20204;-70
2022/09/12 07:09:13;;;;;;;10.57;9.67;;;;;;;12.44;100.00;97239.69;5006619;28;20210;-68
2022/09/12 07:11:44;;;;;;;9.13;8.33;;;;;;;12.72;100.00;97237.00;4991839;28;20932;-70
2022/09/12 07:14:14;;;;;;;8.60;7.90;;;;;;;12.83;100.00;97240.13;5009194;28;20226;-70
2022/09/12 07:16:44;;;;;;;9.43;8.73;;;;;;;12.96;100.00;97237.50;5006713;28;20737;-71
2022/09/12 07:19:12;;;;;;;8.83;8.23;;;;;;;13.16;100.00;97242.09;4995395;28;20231;-67
2022/09/12 07:21:40;;;;;;;10.20;9.30;;;;;;;13.36;100.00;97238.69;4963645;28;20231;-68
2022/09/12 07:24:10;;;;;;;10.07;9.27;;;;;;;13.61;100.00;97238.97;5017425;28;20209;-68
2022/09/12 07:26:39;;;;;;;8.80;8.10;;;;;;;13.61;100.00;97238.97;5017155;28;20734;-70
2022/09/12 07:29:09;;;;;;;8.60;8.00;;;;;;;13.61;100.00;97238.97;5018310;28;20257;-66
2022/09/12 07:32:00;;;;;;;8.67;7.50;;;;;;;13.75;100.00;97239.81;5015357;28;20737;-69
2022/09/12 07:34:29;;;;;;;8.43;7.83;;;;;;;13.83;100.00;97238.81;4939722;28;20243;-69
2022/09/12 07:36:57;;;;;;;6.90;6.40;;;;;;;13.90;100.00;97234.28;5009962;28;20579;-66
2022/09/12 07:39:26;;;;;;;7.97;7.40;;;;;;;13.94;100.00;97230.19;4997044;28;20865;-66
2022/09/12 07:41:54;;;;;;;7.70;7.10;;;;;;;13.92;100.00;97245.56;4999359;28;20298;-65
2022/09/12 07:44:23;;;;;;;7.07;6.67;;;;;;;14.16;100.00;97238.81;5009321;28;20726;-66
2022/09/12 07:46:51;;;;;;;7.27;6.87;;;;;;;14.05;100.00;97236.75;5008653;28;20522;-65
2022/09/12 07:49:20;;;;;;;7.80;7.10;;;;;;;13.86;100.00;97233.06;4960526;28;20454;-68
2022/09/12 07:51:48;;;;;;;7.47;6.93;;;;;;;13.77;100.00;97232.44;5000057;28;20469;-67
2022/09/12 07:54:17;;;;;;;7.90;7.30;;;;;;;13.60;100.00;97246.16;5007772;28;20304;-68
2022/09/12 07:56:45;;;;;;;7.67;7.17;;;;;;;13.29;100.00;97225.38;4990266;28;20748;-67
2022/09/12 07:59:13;;;;;;;8.53;7.93;;;;;;;13.29;100.00;97244.81;5009095;28;20205;-66
2022/09/12 08:02:02;;;;;;;9.23;8.43;;;;;;;13.40;100.00;97238.09;5008866;28;20226;-69
2022/09/12 08:04:35;;;;;;;10.17;9.13;;;;;;;13.61;100.00;97249.63;4969643;28;20606;-71
2022/09/12 08:07:05;;;;;;;8.97;8.23;;;;;;;13.43;100.00;97239.53;5009039;28;20210;-68
2022/09/12 08:09:33;;;;;;;8.50;7.90;;;;;;;13.80;100.00;97216.06;5006695;28;20209;-69
2022/09/12 08:12:02;;;;;;;8.73;8.13;;;;;;;14.44;100.00;97248.41;4993150;28;20787;-69
2022/09/12 08:14:30;;;;;;;9.20;8.50;;;;;;;14.44;100.00;97243.09;5005241;28;20214;-70
2022/09/12 08:16:58;;;;;;;8.80;8.20;;;;;;;14.68;100.00;97253.31;5007729;28;20262;-69
2022/09/12 08:19:26;;;;;;;9.73;8.93;;;;;;;14.56;100.00;97247.78;4980642;28;20571;-68
2022/09/12 08:21:56;;;;;;;9.20;8.50;;;;;;;14.44;100.00;97247.63;4995180;28;20232;-70
2022/09/12 08:24:24;;;;;;;8.43;7.83;;;;;;;14.36;100.00;97221.16;5008543;28;20212;-70
2022/09/12 08:26:52;;;;;;;8.80;8.10;;;;;;;15.02;100.00;97246.88;4992161;28;20223;-70
2022/09/12 08:29:21;;;;;;;9.73;9.00;;;;;;;15.15;100.00;97245.19;5012056;28;20201;-67
2022/09/12 08:31:49;;;;;;;9.23;8.63;;;;;;;14.72;100.00;97252.72;5009968;28;20872;-66
2022/09/12 08:34:25;;;;;;;9.10;8.50;;;;;;;14.60;100.00;97235.69;4992961;28;20208;-66
2022/09/12 08:36:54;;;;;;;9.17;8.47;;;;;;;14.28;100.00;97227.53;4994011;28;20811;-66
2022/09/12 08:39:23;;;;;;;9.37;8.67;;;;;;;14.48;100.00;97254.97;5010914;28;20196;-66
2022/09/12 08:41:58;;;;;;;9.60;8.70;;;;;;;14.41;100.00;97261.38;5013367;28;20666;-67
2022/09/12 08:44:42;;;;;;;9.57;8.67;;;;;;;14.66;100.00;97261.53;4993189;28;20211;-68
2022/09/12 08:47:18;;;;;;;9.20;8.57;;;;;;;14.68;100.00;97264.81;5013824;28;20211;-66
2022/09/12 08:49:55;;;;;;;10.30;9.40;;;;;;;14.32;100.00;97261.56;5008960;28;20705;-68
2022/09/12 08:52:27;;;;;;;9.97;9.27;;;;;;;14.01;100.00;97227.53;4961676;28;20259;-68
2022/09/12 08:54:57;;;;;;;10.53;9.63;;;;;;;14.48;100.00;97260.31;5010811;28;20703;-65
2022/09/12 08:57:25;;;;;;;9.27;8.67;;;;;;;14.74;100.00;97249.81;5010585;28;20224;-67
2022/09/12 08:59:53;;;;;;;9.87;9.07;;;;;;;14.99;100.00;97243.81;4992898;28;20241;-69
2022/09/12 09:02:33;;;;;;;9.60;8.90;;;;;;;15.34;100.00;97238.97;5010991;28;20244;-67
2022/09/12 09:05:10;;;;;;;9.57;8.80;;;;;;;15.74;100.00;97239.75;5012260;28;20216;-69
2022/09/12 09:07:54;;;;;;;9.57;8.87;;;;;;;15.54;100.00;97237.22;4959850;28;20830;-68
2022/09/12 09:10:28;;;;;;;9.80;9.07;;;;;;;15.47;100.00;97208.66;5012776;28;20214;-68
2022/09/12 09:13:01;;;;;;;9.57;8.90;;;;;;;15.75;100.00;97238.72;5010595;28;20726;-69
2022/09/12 09:15:39;;;;;;;9.20;8.60;;;;;;;15.55;100.00;97241.50;4988088;28;20222;-70
2022/09/12 09:18:12;;;;;;;9.27;8.67;;;;;;;15.91;100.00;97240.88;5010007;28;20573;-67
2022/09/12 09:20:45;;;;;;;10.30;9.60;;;;;;;16.03;100.00;97240.16;5009362;28;20979;-68
2022/09/12 09:23:16;;;;;;;9.73;9.10;;;;;;;15.89;100.00;97242.13;4963770;28;20228;-67
2022/09/12 09:25:51;;;;;;;9.37;8.77;;;;;;;16.23;100.00;97231.19;5010625;28;20206;-68
2022/09/12 09:28:23;;;;;;;9.23;8.53;;;;;;;15.90;100.00;97206.34;5008211;28;20677;-70
2022/09/12 09:30:51;;;;;;;10.33;9.50;;;;;;;15.60;100.00;97231.00;4988231;28;20327;-67
2022/09/12 09:33:22;;;;;;;9.83;9.17;;;;;;;15.81;100.00;97239.69;5009830;28;20232;-68
2022/09/12 09:35:57;;;;;;;10.13;9.43;;;;;;;15.77;100.00;97233.97;5010921;28;20453;-68
2022/09/12 09:38:29;;;;;;;9.67;9.07;;;;;;;15.83;100.00;97201.06;4961293;28;20215;-71
2022/09/12 09:41:17;;;;;;;9.93;9.13;;;;;;;16.29;100.00;97225.78;4937960;28;20219;-68
2022/09/12 09:43:45;;;;;;;9.90;9.20;;;;;;;16.41;100.00;97222.38;5005289;28;20608;-68
2022/09/12 09:46:14;;;;;;;10.20;9.50;;;;;;;16.60;100.00;97224.03;4996021;28;20223;-69
2022/09/12 09:48:45;;;;;;;10.10;9.40;;;;;;;16.76;100.00;97224.50;5002598;28;20649;-68
2022/09/12 09:51:17;;;;;;;10.10;9.40;;;;;;;16.64;100.00;97221.75;5008181;28;20728;-69
2022/09/12 09:53:48;;;;;;;9.70;9.10;;;;;;;15.97;100.00;97190.28;5008319;28;20230;-68
2022/09/12 09:56:27;;;;;;;8.67;8.07;;;;;;;15.94;100.00;97223.63;4965066;28;20467;-68
2022/09/12 09:58:55;;;;;;;10.03;9.33;;;;;;;15.57;100.00;97218.88;5008717;28;20349;-67
2022/09/12 10:01:24;;;;;;;9.43;8.83;;;;;;;15.81;100.00;97221.00;4993092;28;20658;-68
2022/09/12 10:03:53;;;;;;;10.33;9.63;;;;;;;15.79;100.00;97229.22;5007438;28;20208;-70
2022/09/12 10:06:33;;;;;;;9.63;9.03;;;;;;;15.71;100.00;97224.97;5012712;28;20379;-68
2022/09/12 10:09:07;;;;;;;9.67;8.97;;;;;;;15.67;100.00;97217.59;5009688;28;20223;-68
2022/09/12 10:11:38;;;;;;;9.80;9.10;;;;;;;15.69;100.00;97208.34;4964053;28;20608;-69
2022/09/12 10:14:28;;;;;;;10.47;9.67;;;;;;;15.66;100.00;97213.28;5007118;28;20200;-68
2022/09/12 10:16:57;;;;;;;10.67;9.87;;;;;;;15.45;100.00;97208.06;4992307;28;20204;-68
2022/09/12 10:19:34;;;;;;;9.97;9.17;;;;;;;15.63;100.00;97209.22;5011015;28;20224;-67
2022/09/12 10:22:03;;;;;;;9.60;8.90;;;;;;;15.62;100.00;97208.38;5008600;28;20254;-69
2022/09/12 10:24:35;;;;;;;9.30;8.70;;;;;;;15.73;100.00;97208.75;5011313;28;20208;-69
2022/09/12 10:27:10;;;;;;;8.83;8.23;;;;;;;15.91;100.00;97198.13;4964890;28;20247;-69
2022/09/12 10:29:42;;;;;;;8.63;8.03;;;;;;;16.02;100.00;97201.13;5007073;28;20214;-70
2022/09/12 10:32:11;;;;;;;8.87;8.23;;;;;;;16.14;100.00;97191.38;4981381;28;20496;-65
2022/09/12 10:34:45;;;;;;;8.30;7.60;;;;;;;16.24;100.00;97198.06;5008758;28;21044;-70
2022/09/12 10:37:18;;;;;;;9.30;8.60;;;;;;;16.36;100.00;97196.28;5009943;28;20670;-67
2022/09/12 10:39:52;;;;;;;9.10;8.50;;;;;;;16.06;100.00;97167.56;5010122;28;20215;-73
2022/09/12 10:42:47;;;;;;;8.17;7.57;;;;;;;16.32;100.00;97197.78;4953701;28;20255;-67
2022/09/12 10:45:25;;;;;;;9.07;8.47;;;;;;;16.16;100.00;97200.00;4985281;28;20223;-68
2022/09/12 10:47:54;;;;;;;8.40;7.80;;;;;;;16.15;100.00;97205.53;4976366;28;20352;-64
2022/09/12 10:50:25;;;;;;;8.53;7.93;;;;;;;16.46;100.00;97201.94;5008115;28;20220;-69
2022/09/12 10:52:54;;;;;;;7.63;7.13;;;;;;;16.79;100.00;97198.09;4991214;28;20631;-69
2022/09/12 10:55:32;;;;;;;8.07;7.40;;;;;;;16.65;100.00;97161.84;5010728;28;20262;-67
2022/09/12 10:58:09;;;;;;;7.77;7.17;;;;;;;16.82;100.00;97188.00;4963120;28;20231;-68
2022/09/12 11:00:40;;;;;;;7.90;7.37;;;;;;;16.56;100.00;97187.25;5008243;28;20200;-69
2022/09/12 11:03:16;;;;;;;7.60;7.03;;;;;;;16.59;100.00;97192.97;5007919;28;20232;-67
2022/09/12 11:05:53;;;;;;;8.63;7.93;;;;;;;16.39;100.00;97158.41;4990665;28;20216;-69
2022/09/12 11:08:33;;;;;;;8.20;7.60;;;;;;;16.73;100.00;97180.28;4992794;28;20212;-69
2022/09/12 11:11:06;;;;;;;6.87;6.43;;;;;;;16.58;100.00;97139.72;5005729;28;20212;-70
2022/09/12 11:13:51;;;;;;;7.67;7.00;;;;;;;16.49;100.00;97174.78;4962661;28;20228;-69
2022/09/12 11:16:27;;;;;;;6.43;5.83;;;;;;;16.71;100.00;97163.63;5004732;28;20200;-68
2022/09/12 11:19:25;;;;;;;6.00;5.60;;;;;;;16.72;100.00;97159.09;4987991;28;20238;-65
2022/09/12 11:22:09;;;;;;;6.50;6.10;;;;;;;16.71;100.00;97154.81;5004975;28;20481;-67
2022/09/12 11:24:55;;;;;;;5.87;5.57;;;;;;;16.79;100.00;97151.81;4983844;28;20212;-70
2022/09/12 11:27:38;;;;;;;5.60;5.20;;;;;;;16.80;100.00;97153.44;5008698;28;20751;-67
2022/09/12 11:30:11;;;;;;;4.97;4.63;;;;;;;17.18;100.00;97140.81;4987220;28;20591;-65
2022/09/12 11:32:58;;;;;;;4.73;4.40;;;;;;;17.44;100.00;97145.00;5007795;28;20224;-69
2022/09/12 11:35:29;;;;;;;6.03;5.57;;;;;;;17.63;100.00;97142.22;4992444;28;20313;-68
2022/09/12 11:38:16;;;;;;;5.17;4.87;;;;;;;17.62;100.00;97144.09;5006138;28;20696;-67
2022/09/12 11:40:46;;;;;;;4.80;4.50;;;;;;;17.57;100.00;97148.50;4993758;28;20595;-69
2022/09/12 11:43:22;;;;;;;4.10;3.90;;;;;;;17.45;100.00;97140.44;5010639;28;20216;-69
2022/09/12 11:45:52;;;;;;;3.90;3.70;;;;;;;17.37;100.00;97114.81;4957746;28;20423;-67